Time;durP1;ratioP1;P1;durP2;ratioP2;P2;SDS_P1;SDS_P2;PMS_P1;PMS_P2;Temp;Humidity;BMP_temperature;BMP_pressure;BME280_temperature;BME280_humidity;BME280_pressure;Samples;Min_cycle;Max_cycle;Signal;HPM_P1;HPM_P2
2022/03/02 00:00:50;;;;;;;13.57;7.50;;;2.10;87.60;;;;;;5124918;28;20256;-90
2022/03/02 00:03:15;;;;;;;14.70;9.10;;;2.10;88.00;;;;;;5108885;28;20263;-89
2022/03/02 00:05:42;;;;;;;13.57;7.60;;;2.10;87.90;;;;;;5096075;28;20448;-89
2022/03/02 00:08:07;;;;;;;11.98;8.00;;;2.00;87.50;;;;;;5103013;28;20191;-89
2022/03/02 00:10:33;;;;;;;13.40;7.50;;;2.00;88.10;;;;;;5118852;28;20282;-89
2022/03/02 00:12:59;;;;;;;14.65;8.63;;;2.00;87.80;;;;;;5123642;28;20172;-89
2022/03/02 00:15:26;;;;;;;14.37;8.07;;;1.90;87.40;;;;;;5116370;28;20267;-89
2022/03/02 00:17:52;;;;;;;14.18;9.07;;;1.90;87.40;;;;;;5116048;28;20411;-89
2022/03/02 00:20:18;;;;;;;14.82;8.95;;;1.80;87.80;;;;;;5116354;28;20223;-90
2022/03/02 00:22:44;;;;;;;13.60;8.20;;;1.80;88.80;;;;;;5117891;28;20213;-89
2022/03/02 00:25:10;;;;;;;13.18;8.70;;;1.80;88.10;;;;;;5126253;28;20323;-89
2022/03/02 00:27:37;;;;;;;13.55;8.57;;;1.70;88.30;;;;;;5116105;28;20256;-90
2022/03/02 00:30:10;;;;;;;15.48;9.40;;;1.70;88.40;;;;;;5116287;28;20188;-90
2022/03/02 00:32:36;;;;;;;14.48;9.75;;;1.70;88.70;;;;;;5116451;28;20187;-90
2022/03/02 00:35:03;;;;;;;14.18;9.07;;;1.70;89.60;;;;;;5122338;28;20200;-90
2022/03/02 00:37:29;;;;;;;13.50;8.82;;;1.70;88.60;;;;;;5116792;28;20176;-89
2022/03/02 00:39:55;;;;;;;15.30;9.37;;;1.60;88.90;;;;;;5115923;28;20198;-90
2022/03/02 00:42:22;;;;;;;12.43;9.40;;;1.60;89.30;;;;;;5115785;28;20428;-89
2022/03/02 00:44:48;;;;;;;11.05;9.07;;;1.60;89.50;;;;;;5098450;27;20222;-89
2022/03/02 00:47:14;;;;;;;15.80;10.10;;;1.60;89.40;;;;;;5116536;28;20206;-89
2022/03/02 00:49:40;;;;;;;15.20;9.52;;;1.60;89.10;;;;;;5104546;28;20727;-89
2022/03/02 00:52:11;;;;;;;14.30;9.73;;;1.60;89.40;;;;;;5102785;28;20182;-89
2022/03/02 00:54:37;;;;;;;14.80;9.15;;;1.60;89.40;;;;;;5102482;28;20204;-89
2022/03/02 00:57:04;;;;;;;11.70;8.70;;;1.60;89.10;;;;;;5101873;28;20187;-89
2022/03/02 00:59:29;;;;;;;15.43;8.68;;;1.60;89.90;;;;;;5040861;28;20205;-89
2022/03/02 01:01:55;;;;;;;14.53;8.70;;;1.50;89.30;;;;;;5107323;28;20635;-88
2022/03/02 01:04:24;;;;;;;16.73;10.10;;;1.50;89.10;;;;;;5101470;28;20401;-89
2022/03/02 01:06:50;;;;;;;11.80;7.97;;;1.50;89.30;;;;;;5101054;28;20458;-89
2022/03/02 01:09:16;;;;;;;12.25;9.25;;;1.50;89.10;;;;;;5032542;28;20265;-89
2022/03/02 01:11:42;;;;;;;12.70;8.43;;;1.50;89.40;;;;;;5102458;28;20189;-90
2022/03/02 01:14:08;;;;;;;12.98;9.55;;;1.50;89.90;;;;;;5108262;28;20206;-89
2022/03/02 01:19:19;;;;;;;20.92;10.40;;;1.40;89.60;;;;;;5033079;28;20197;-90
2022/03/02 01:21:45;;;;;;;15.68;10.07;;;1.40;89.80;;;;;;5100970;28;20179;-90
2022/03/02 01:24:11;;;;;;;18.73;11.27;;;1.40;90.50;;;;;;5105936;28;20190;-90
2022/03/02 01:26:38;;;;;;;15.48;9.75;;;1.40;90.00;;;;;;5103331;28;20460;-90
2022/03/02 01:29:05;;;;;;;20.13;11.00;;;1.40;89.80;;;;;;5101010;28;20178;-90
2022/03/02 01:31:31;;;;;;;17.17;10.75;;;1.30;90.00;;;;;;5101233;28;20280;-90
2022/03/02 01:34:00;;;;;;;15.57;9.80;;;1.30;90.10;;;;;;5100975;28;20185;-90
2022/03/02 01:36:29;;;;;;;14.40;8.88;;;1.30;89.80;;;;;;5110294;28;20203;-94
2022/03/02 01:38:55;;;;;;;19.65;10.60;;;1.30;90.00;;;;;;5087653;28;20325;-94
2022/03/02 01:41:23;;;;;;;15.97;10.67;;;1.30;90.10;;;;;;5082745;28;20671;-92
2022/03/02 01:43:54;;;;;;;18.63;10.82;;;1.30;90.30;;;;;;5077145;28;20402;-93
2022/03/02 01:46:24;;;;;;;14.32;10.07;;;1.30;90.30;;;;;;5084923;28;20253;-93
2022/03/02 01:48:50;;;;;;;16.08;11.00;;;1.30;90.40;;;;;;5111215;28;20196;-93
2022/03/02 01:51:20;;;;;;;13.82;9.73;;;1.30;90.40;;;;;;5100640;28;20225;-92
2022/03/02 01:53:46;;;;;;;13.93;9.57;;;1.30;90.60;;;;;;5088588;28;20179;-94
2022/03/02 01:56:13;;;;;;;13.65;9.40;;;1.30;90.60;;;;;;5080695;28;20686;-94
2022/03/02 01:58:39;;;;;;;16.35;10.00;;;1.30;90.70;;;;;;5091070;28;20178;-94
2022/03/02 02:01:06;;;;;;;14.65;10.23;;;1.30;90.70;;;;;;5113447;28;20218;-95
2022/03/02 02:03:33;;;;;;;17.58;10.57;;;1.40;90.80;;;;;;5100691;28;20182;-93
2022/03/02 02:05:59;;;;;;;15.93;10.52;;;1.40;90.80;;;;;;5100396;28;20663;-92
2022/03/02 02:08:25;;;;;;;15.48;10.57;;;1.40;90.70;;;;;;5092073;28;20191;-94
2022/03/02 02:10:53;;;;;;;18.80;10.55;;;1.40;90.90;;;;;;5085073;28;20206;-94
2022/03/02 02:13:19;;;;;;;16.85;10.82;;;1.40;91.10;;;;;;5089596;28;20219;-93
2022/03/02 02:15:45;;;;;;;14.02;9.60;;;1.40;91.20;;;;;;5080044;28;20206;-94
2022/03/02 02:18:11;;;;;;;20.07;12.07;;;1.40;91.10;;;;;;5080304;28;20274;-94
2022/03/02 02:20:38;;;;;;;16.45;9.63;;;1.40;90.90;;;;;;5079924;28;20224;-94
2022/03/02 02:23:04;;;;;;;15.45;9.57;;;1.40;91.00;;;;;;5079132;28;20184;-95
2022/03/02 02:25:30;;;;;;;16.05;10.02;;;1.40;91.00;;;;;;5088594;28;20191;-93
2022/03/02 02:27:59;;;;;;;14.05;9.85;;;1.40;91.00;;;;;;5012107;28;20215;-91
2022/03/02 02:30:26;;;;;;;19.08;11.00;;;1.40;90.90;;;;;;5011977;28;20792;-93
2022/03/02 02:32:52;;;;;;;17.17;10.63;;;1.40;91.20;;;;;;5079600;28;20659;-95
2022/03/02 02:35:18;;;;;;;16.67;10.45;;;1.30;91.70;;;;;;5081722;28;20195;-93
2022/03/02 02:37:44;;;;;;;20.33;10.63;;;1.30;91.50;;;;;;5089918;28;20194;-95
2022/03/02 02:40:19;;;;;;;16.48;10.00;;;1.30;91.40;;;;;;5079710;28;20451;-93
2022/03/02 02:42:47;;;;;;;17.80;11.10;;;1.30;91.40;;;;;;5079435;28;20265;-95
2022/03/02 02:45:17;;;;;;;15.77;10.70;;;1.20;91.50;;;;;;5079741;28;20267;-94
2022/03/02 02:47:44;;;;;;;15.57;9.65;;;1.20;91.70;;;;;;5082950;28;20218;-94
2022/03/02 02:50:24;;;;;;;12.82;8.95;;;1.30;91.60;;;;;;5111701;28;20183;-94
2022/03/02 02:52:55;;;;;;;14.57;9.68;;;1.20;91.80;;;;;;5099791;28;20184;-94
2022/03/02 02:55:24;;;;;;;19.50;10.07;;;1.20;91.80;;;;;;5100131;28;20202;-94
2022/03/02 02:57:51;;;;;;;16.02;10.13;;;1.20;91.90;;;;;;5099977;28;20205;-90
2022/03/02 03:00:20;;;;;;;15.48;9.80;;;1.30;92.10;;;;;;5084438;28;20210;-91
2022/03/02 03:02:51;;;;;;;20.77;10.18;;;1.30;92.10;;;;;;5111666;28;20621;-90
2022/03/02 03:05:20;;;;;;;16.30;10.25;;;1.30;92.10;;;;;;5099743;28;20693;-89
2022/03/02 03:07:47;;;;;;;17.08;10.02;;;1.30;92.00;;;;;;5034496;28;20222;-90
2022/03/02 03:10:14;;;;;;;14.25;10.60;;;1.30;92.10;;;;;;5099420;28;20202;-90
2022/03/02 03:12:40;;;;;;;14.27;9.73;;;1.30;92.20;;;;;;5104481;28;20207;-89
2022/03/02 03:15:09;;;;;;;17.10;10.20;;;1.20;92.10;;;;;;5035076;28;20195;-90
2022/03/02 03:17:35;;;;;;;15.25;9.80;;;1.20;92.20;;;;;;5097265;28;20520;-90
2022/03/02 03:20:05;;;;;;;16.58;9.27;;;1.20;92.20;;;;;;5062630;28;20207;-90
2022/03/02 03:22:31;;;;;;;15.25;9.23;;;1.10;92.30;;;;;;5080519;28;20187;-90
2022/03/02 03:24:57;;;;;;;13.32;10.23;;;1.10;92.20;;;;;;5039998;28;20179;-90
2022/03/02 03:27:23;;;;;;;15.63;10.70;;;1.10;92.50;;;;;;5105843;28;20703;-90
2022/03/02 03:29:49;;;;;;;18.53;11.40;;;1.00;92.40;;;;;;5099349;28;20456;-90
2022/03/02 03:32:15;;;;;;;16.13;10.33;;;1.00;92.60;;;;;;5099555;28;20414;-90
2022/03/02 03:34:41;;;;;;;17.33;11.27;;;1.00;92.70;;;;;;5102640;28;20411;-90
2022/03/02 03:37:08;;;;;;;15.37;10.27;;;1.00;92.60;;;;;;5104116;28;20188;-90
2022/03/02 03:39:34;;;;;;;17.25;12.15;;;1.00;92.70;;;;;;5110351;28;20933;-90
2022/03/02 03:42:00;;;;;;;21.42;11.30;;;1.00;92.70;;;;;;5103215;28;20175;-90
2022/03/02 03:44:25;;;;;;;14.93;10.10;;;0.90;92.60;;;;;;5102427;28;20679;-89
2022/03/02 03:46:52;;;;;;;16.03;10.20;;;0.90;92.80;;;;;;5034311;28;20454;-90
2022/03/02 03:49:18;;;;;;;17.20;10.95;;;0.90;92.70;;;;;;5108446;28;20394;-89
2022/03/02 03:51:44;;;;;;;13.63;9.53;;;0.90;92.70;;;;;;5034653;28;20190;-89
2022/03/02 03:54:10;;;;;;;15.37;10.03;;;0.80;92.80;;;;;;5102620;28;20476;-90
2022/03/02 03:56:36;;;;;;;15.70;10.52;;;0.80;92.80;;;;;;5105341;28;20912;-89
2022/03/02 03:59:02;;;;;;;13.95;9.98;;;0.80;93.00;;;;;;5108941;28;20194;-90
2022/03/02 04:01:28;;;;;;;13.75;9.45;;;0.70;93.00;;;;;;5102106;28;20259;-89
2022/03/02 04:03:54;;;;;;;14.73;9.80;;;0.70;93.10;;;;;;5089135;28;20179;-89
2022/03/02 04:06:20;;;;;;;13.07;10.37;;;0.70;93.30;;;;;;5081723;28;20463;-89
2022/03/02 04:08:49;;;;;;;12.23;9.50;;;0.60;93.30;;;;;;5082065;28;20440;-89
2022/03/02 04:11:15;;;;;;;16.15;10.43;;;0.60;93.80;;;;;;5087453;28;20266;-89
2022/03/02 04:13:40;;;;;;;18.17;11.07;;;0.60;93.50;;;;;;5081860;28;20218;-88
2022/03/02 04:16:07;;;;;;;14.97;10.10;;;0.50;93.60;;;;;;5082079;28;20443;-89
2022/03/02 04:18:33;;;;;;;17.58;10.55;;;0.50;93.80;;;;;;5092354;28;20375;-89
2022/03/02 04:21:00;;;;;;;16.80;10.93;;;0.50;93.70;;;;;;5104032;28;20213;-88
2022/03/02 04:23:26;;;;;;;14.32;10.23;;;0.50;94.00;;;;;;5037741;28;20238;-89
2022/03/02 04:25:52;;;;;;;16.75;9.70;;;0.50;94.00;;;;;;5103047;28;20728;-88
2022/03/02 04:28:19;;;;;;;15.80;9.73;;;0.50;94.20;;;;;;5102033;28;20212;-90
2022/03/02 04:30:48;;;;;;;16.92;9.80;;;0.50;94.20;;;;;;5102144;28;20339;-88
2022/03/02 04:33:14;;;;;;;16.38;10.70;;;0.60;94.30;;;;;;5101792;28;20298;-89
2022/03/02 04:35:40;;;;;;;14.93;10.03;;;0.60;94.20;;;;;;5112242;27;20207;-89
2022/03/02 04:38:10;;;;;;;17.15;10.43;;;0.70;94.30;;;;;;5095138;28;20433;-89
2022/03/02 04:40:36;;;;;;;19.63;11.70;;;0.70;94.30;;;;;;5090904;28;20293;-89
2022/03/02 04:43:03;;;;;;;16.35;11.80;;;0.70;94.20;;;;;;5082985;28;20192;-89
2022/03/02 04:45:29;;;;;;;19.85;11.90;;;0.70;94.10;;;;;;5104046;28;20238;-89
2022/03/02 04:47:57;;;;;;;18.70;12.10;;;0.80;94.20;;;;;;5102707;28;20226;-92
2022/03/02 04:50:23;;;;;;;17.70;11.02;;;0.70;94.20;;;;;;5105734;28;20195;-94
2022/03/02 04:52:50;;;;;;;14.25;10.27;;;0.70;94.20;;;;;;5100849;28;20186;-94
2022/03/02 04:55:17;;;;;;;18.00;10.60;;;0.70;94.30;;;;;;5100707;28;20199;-94
2022/03/02 04:57:48;;;;;;;13.35;9.82;;;0.70;94.30;;;;;;5098103;28;20183;-94
2022/03/02 05:00:20;;;;;;;18.33;9.73;;;0.70;94.30;;;;;;5096141;28;20227;-94
2022/03/02 05:02:46;;;;;;;17.02;10.77;;;0.70;94.30;;;;;;5100305;28;20182;-93
2022/03/02 05:05:15;;;;;;;15.15;10.18;;;0.70;94.40;;;;;;5100279;28;20209;-94
2022/03/02 05:07:42;;;;;;;16.63;10.80;;;0.70;94.50;;;;;;5100137;28;20221;-93
2022/03/02 05:10:08;;;;;;;16.08;10.77;;;0.60;94.60;;;;;;5100793;28;20205;-88
2022/03/02 05:12:34;;;;;;;17.27;10.30;;;0.60;94.60;;;;;;5040655;28;20179;-89
2022/03/02 05:15:01;;;;;;;15.80;11.48;;;0.60;94.60;;;;;;5101828;28;20195;-89
2022/03/02 05:17:30;;;;;;;16.08;11.27;;;0.60;94.70;;;;;;5104150;28;20190;-88
2022/03/02 05:19:55;;;;;;;18.10;11.80;;;0.60;94.70;;;;;;5101403;28;20199;-89
2022/03/02 05:22:21;;;;;;;15.63;10.50;;;0.60;94.70;;;;;;5100985;28;20182;-88
2022/03/02 05:24:47;;;;;;;12.88;9.32;;;0.60;96.70;;;;;;5124114;27;20413;-88
2022/03/02 05:27:13;;;;;;;20.80;10.40;;;0.80;99.40;;;;;;5118206;27;20219;-89
2022/03/02 05:29:40;;;;;;;21.83;11.43;;;1.10;99.90;;;;;;5099303;28;20218;-89
2022/03/02 05:32:06;;;;;;;15.43;10.10;;;1.40;99.90;;;;;;5098437;28;20191;-89
2022/03/02 05:34:32;;;;;;;21.58;10.43;;;1.60;99.90;;;;;;5024957;28;20210;-89
2022/03/02 05:36:58;;;;;;;16.42;11.45;;;1.80;99.90;;;;;;5127454;27;20195;-89
2022/03/02 05:39:24;;;;;;;21.67;13.95;;;1.90;99.90;;;;;;5100761;28;20214;-89
2022/03/02 05:41:51;;;;;;;19.17;12.90;;;1.90;99.90;;;;;;5105101;27;20193;-90
2022/03/02 05:44:17;;;;;;;20.15;11.90;;;1.80;99.50;;;;;;5116532;27;20393;-89
2022/03/02 05:46:43;;;;;;;17.80;11.32;;;1.60;99.30;;;;;;5090981;27;20314;-89
2022/03/02 05:49:10;;;;;;;18.67;12.10;;;1.40;99.20;;;;;;5093868;27;20183;-93
2022/03/02 05:51:36;;;;;;;24.27;12.00;;;1.30;99.50;;;;;;5019960;28;20270;-93
2022/03/02 05:54:04;;;;;;;16.05;11.48;;;1.10;99.60;;;;;;5045555;27;20182;-94
2022/03/02 05:56:31;;;;;;;16.48;10.90;;;1.00;99.90;;;;;;5117050;27;20222;-93
2022/03/02 05:58:58;;;;;;;18.70;11.27;;;0.90;99.90;;;;;;5100565;28;20273;-94
2022/03/02 06:01:24;;;;;;;18.02;10.98;;;0.80;99.90;;;;;;5106268;27;20203;-93
2022/03/02 06:03:50;;;;;;;17.30;10.82;;;0.80;99.90;;;;;;5096863;28;20186;-93
2022/03/02 06:06:16;;;;;;;18.13;11.70;;;0.80;99.90;;;;;;5108996;27;20230;-93
2022/03/02 06:08:42;;;;;;;18.70;12.85;;;0.80;99.90;;;;;;5100432;28;20189;-93
2022/03/02 06:11:09;;;;;;;16.90;11.38;;;0.80;99.90;;;;;;5097133;28;20191;-94
2022/03/02 06:13:35;;;;;;;18.20;11.55;;;0.80;99.90;;;;;;5108876;27;20199;-93
2022/03/02 06:16:02;;;;;;;18.45;12.02;;;0.90;99.90;;;;;;5014656;28;20233;-95
2022/03/02 06:18:29;;;;;;;18.35;12.35;;;0.90;99.90;;;;;;5023880;28;20251;-93
2022/03/02 06:21:00;;;;;;;22.17;12.35;;;1.00;99.90;;;;;;5101984;27;20199;-94
2022/03/02 06:23:32;;;;;;;18.92;12.20;;;1.00;99.90;;;;;;5103249;28;20194;-94
2022/03/02 06:25:58;;;;;;;14.98;10.38;;;1.10;99.90;;;;;;5097269;28;20279;-94
2022/03/02 06:28:25;;;;;;;17.90;10.23;;;1.10;99.90;;;;;;5112794;27;20183;-92
2022/03/02 06:30:51;;;;;;;18.95;11.52;;;1.20;99.90;;;;;;5020939;27;20202;-93
2022/03/02 06:33:19;;;;;;;17.23;11.35;;;1.30;99.90;;;;;;5081612;28;20215;-95
2022/03/02 06:35:48;;;;;;;21.02;11.40;;;1.40;99.90;;;;;;5022978;28;20253;-94
2022/03/02 06:38:15;;;;;;;15.80;11.80;;;1.50;99.90;;;;;;5099696;28;20636;-93
2022/03/02 06:41:00;;;;;;;21.90;11.48;;;1.60;99.90;;;;;;5088098;27;20207;-88
2022/03/02 06:43:31;;;;;;;15.82;10.18;;;1.60;99.90;;;;;;5099228;28;20273;-87
2022/03/02 06:46:08;;;;;;;18.50;11.73;;;1.70;99.90;;;;;;5013097;28;20334;-89
2022/03/02 06:48:42;;;;;;;17.10;11.05;;;1.80;99.90;;;;;;5094604;28;20193;-88
2022/03/02 06:51:14;;;;;;;14.70;10.82;;;1.80;99.90;;;;;;5100961;28;20661;-89
2022/03/02 06:53:44;;;;;;;18.60;11.63;;;1.90;99.90;;;;;;5094457;28;20186;-88
2022/03/02 06:56:10;;;;;;;15.27;11.30;;;2.00;99.90;;;;;;5038582;28;20195;-87
2022/03/02 06:58:41;;;;;;;16.10;11.55;;;2.10;99.90;;;;;;5098289;28;20190;-88
2022/03/02 07:01:09;;;;;;;16.33;10.68;;;2.10;99.90;;;;;;5031024;28;20191;-88
2022/03/02 07:03:45;;;;;;;17.15;11.10;;;2.20;99.90;;;;;;5096198;28;20187;-87
2022/03/02 07:06:13;;;;;;;21.42;10.27;;;2.30;99.90;;;;;;5021578;28;20701;-87
2022/03/02 07:08:48;;;;;;;15.93;10.15;;;2.40;99.90;;;;;;5116124;28;20254;-88
2022/03/02 07:11:16;;;;;;;16.17;9.18;;;2.60;99.90;;;;;;5104506;28;20212;-87
2022/03/02 07:13:44;;;;;;;16.55;9.60;;;2.70;99.90;;;;;;5120880;27;20191;-90
2022/03/02 07:16:13;;;;;;;14.63;9.77;;;2.90;99.90;;;;;;5097347;28;20199;-90
2022/03/02 07:18:40;;;;;;;17.67;9.45;;;3.00;99.90;;;;;;5101055;28;20179;-91
2022/03/02 07:21:13;;;;;;;18.65;9.93;;;3.10;99.90;;;;;;5120597;28;20214;-91
2022/03/02 07:23:54;;;;;;;19.13;10.70;;;3.30;99.90;;;;;;5092437;27;20197;-90
2022/03/02 07:26:21;;;;;;;14.18;9.82;;;3.40;99.80;;;;;;5097865;28;20686;-91
2022/03/02 07:28:48;;;;;;;12.48;9.38;;;3.50;99.70;;;;;;5111174;27;20669;-90
2022/03/02 07:31:15;;;;;;;15.32;10.48;;;3.70;99.60;;;;;;5108778;28;20263;-90
2022/03/02 07:33:43;;;;;;;14.82;9.27;;;3.90;99.20;;;;;;5116976;27;20164;-91
2022/03/02 07:36:11;;;;;;;12.82;9.43;;;4.00;98.70;;;;;;5113091;27;20221;-90
2022/03/02 07:38:38;;;;;;;12.02;8.05;;;4.10;99.20;;;;;;5110396;27;20189;-91
2022/03/02 07:41:11;;;;;;;14.98;8.85;;;4.30;98.40;;;;;;5098713;28;20204;-90
2022/03/02 07:43:39;;;;;;;14.13;9.13;;;4.40;98.10;;;;;;5105339;28;20278;-91
2022/03/02 07:46:08;;;;;;;14.23;9.75;;;4.60;98.10;;;;;;5099814;28;20226;-91
2022/03/02 07:48:34;;;;;;;14.90;8.85;;;4.70;97.50;;;;;;5103885;27;20273;-89
2022/03/02 07:51:06;;;;;;;15.35;9.10;;;4.90;97.20;;;;;;5117432;27;20210;-91
2022/03/02 07:53:48;;;;;;;13.50;9.27;;;5.00;96.90;;;;;;5034570;28;20301;-91
2022/03/02 07:56:16;;;;;;;13.02;8.75;;;5.10;96.70;;;;;;5095854;28;20194;-91
2022/03/02 07:58:42;;;;;;;14.88;9.15;;;5.30;96.40;;;;;;5100362;28;20229;-91
2022/03/02 08:01:14;;;;;;;15.05;8.98;;;5.50;96.10;;;;;;5118848;27;20318;-91
2022/03/02 08:03:41;;;;;;;13.48;8.90;;;5.60;95.70;;;;;;5116255;27;20187;-91
2022/03/02 08:06:09;;;;;;;15.25;9.10;;;5.80;95.40;;;;;;5097861;27;20203;-90
2022/03/02 08:08:39;;;;;;;12.50;9.63;;;6.00;95.50;;;;;;5086422;28;20194;-91
2022/03/02 08:11:07;;;;;;;10.88;8.00;;;6.30;95.60;;;;;;5055161;27;20212;-93
2022/03/02 08:13:36;;;;;;;13.20;9.27;;;6.70;94.70;;;;;;5080019;27;20251;-94
2022/03/02 08:16:02;;;;;;;10.38;7.88;;;7.10;93.30;;;;;;5108477;27;20209;-91
2022/03/02 08:18:30;;;;;;;11.10;7.82;;;7.70;92.70;;;;;;5105537;27;20716;-91
2022/03/02 08:21:00;;;;;;;10.93;7.82;;;8.30;92.20;;;;;;5078212;28;20263;-91
2022/03/02 08:23:39;;;;;;;9.52;7.43;;;9.00;90.90;;;;;;5102398;27;20285;-91
2022/03/02 08:26:05;;;;;;;11.02;7.97;;;9.90;88.80;;;;;;5089207;28;20203;-91
2022/03/02 08:28:35;;;;;;;11.20;7.20;;;10.80;86.00;;;;;;5104503;28;20309;-90
2022/03/02 08:31:01;;;;;;;11.48;7.95;;;11.40;86.10;;;;;;5085852;28;20207;-95
2022/03/02 08:33:32;;;;;;;10.93;8.40;;;11.90;88.00;;;;;;5094054;28;20201;-91
2022/03/02 08:35:59;;;;;;;12.65;8.60;;;12.40;83.30;;;;;;5098523;28;20218;-91
2022/03/02 08:38:26;;;;;;;10.88;7.85;;;13.20;78.50;;;;;;5095143;28;20190;-92
2022/03/02 08:40:53;;;;;;;9.02;6.85;;;13.80;75.90;;;;;;5103916;27;20313;-91
2022/03/02 08:43:19;;;;;;;10.80;8.52;;;14.40;74.00;;;;;;5091474;28;20214;-91
2022/03/02 08:45:50;;;;;;;10.90;7.18;;;14.90;72.10;;;;;;5109988;28;20382;-90
2022/03/02 08:48:18;;;;;;;13.40;7.80;;;15.30;69.70;;;;;;5113617;28;20211;-93
2022/03/02 08:50:45;;;;;;;10.73;7.63;;;15.70;70.20;;;;;;5112370;28;20451;-93
2022/03/02 08:53:16;;;;;;;15.03;8.43;;;16.00;68.20;;;;;;5118560;28;20439;-90
2022/03/02 08:55:43;;;;;;;11.80;7.50;;;16.40;67.20;;;;;;5113277;28;20533;-90
2022/03/02 08:58:10;;;;;;;8.73;7.33;;;16.80;66.70;;;;;;5110517;28;20435;-91
2022/03/02 09:00:37;;;;;;;9.40;7.13;;;17.20;65.60;;;;;;5107078;28;20517;-90
2022/03/02 09:03:04;;;;;;;9.33;7.93;;;17.40;65.70;;;;;;5112072;28;20429;-90
2022/03/02 09:05:32;;;;;;;10.97;7.43;;;17.60;64.10;;;;;;5117204;28;20711;-93
2022/03/02 09:08:01;;;;;;;8.83;6.97;;;17.90;63.30;;;;;;5118315;28;20521;-93
2022/03/02 09:10:29;;;;;;;9.00;7.53;;;18.20;64.50;;;;;;5107024;28;20484;-90
2022/03/02 09:12:56;;;;;;;9.60;7.87;;;18.40;63.20;;;;;;5106669;28;20450;-93
2022/03/02 09:15:22;;;;;;;8.90;7.10;;;18.70;62.20;;;;;;5112837;28;21039;-93
2022/03/02 09:17:49;;;;;;;9.07;6.90;;;19.00;60.90;;;;;;5108270;28;20518;-94
2022/03/02 09:20:15;;;;;;;12.00;7.90;;;19.10;60.50;;;;;;5108564;28;20461;-93
2022/03/02 09:22:42;;;;;;;9.97;7.73;;;19.20;59.80;;;;;;5115267;28;20420;-93
2022/03/02 09:25:10;;;;;;;10.40;7.20;;;19.40;59.90;;;;;;5085497;28;20224;-92
2022/03/02 09:27:37;;;;;;;14.70;7.00;;;19.60;59.30;;;;;;5080814;28;20865;-91
2022/03/02 09:30:08;;;;;;;14.80;9.20;;;19.80;59.10;;;;;;5082793;28;20564;-88
2022/03/02 09:32:34;;;;;;;48.53;32.10;;;19.70;58.00;;;;;;5081513;28;20432;-90
2022/03/02 09:35:01;;;;;;;35.20;25.80;;;19.80;57.70;;;;;;5079985;28;20453;-88
2022/03/02 09:37:32;;;;;;;13.87;10.70;;;19.70;58.20;;;;;;5091163;28;20448;-90
2022/03/02 09:40:00;;;;;;;10.20;8.23;;;19.40;58.40;;;;;;5088983;28;20448;-89
2022/03/02 09:42:40;;;;;;;11.37;7.40;;;19.10;58.40;;;;;;5082413;28;20425;-89
2022/03/02 09:45:09;;;;;;;8.60;7.70;;;18.80;59.50;;;;;;5037050;28;20470;-89
2022/03/02 09:47:49;;;;;;;10.70;7.13;;;18.50;59.70;;;;;;4964390;28;20572;-90
2022/03/02 09:50:18;;;;;;;8.33;7.50;;;18.40;59.00;;;;;;4962498;28;20501;-89
2022/03/02 09:52:47;;;;;;;8.60;7.57;;;18.30;59.00;;;;;;4967698;28;20436;-94
2022/03/02 09:55:16;;;;;;;12.30;8.40;;;18.30;59.70;;;;;;4962885;28;20454;-95
2022/03/02 09:58:00;;;;;;;10.50;8.17;;;18.50;59.50;;;;;;4970010;28;20448;-94
2022/03/02 10:00:29;;;;;;;12.70;8.73;;;18.50;58.80;;;;;;4977167;28;20461;-94
2022/03/02 10:02:57;;;;;;;9.57;8.00;;;18.40;59.40;;;;;;4976887;28;20450;-88
2022/03/02 10:05:28;;;;;;;10.40;7.70;;;18.30;60.30;;;;;;4977753;28;20506;-88
2022/03/02 10:07:55;;;;;;;11.10;8.17;;;18.30;59.70;;;;;;4967274;28;20480;-88
2022/03/02 10:10:23;;;;;;;9.50;7.37;;;18.20;59.60;;;;;;4969233;28;20458;-88
2022/03/02 10:12:51;;;;;;;11.70;9.10;;;18.20;59.50;;;;;;4972139;28;20492;-89
2022/03/02 10:15:18;;;;;;;15.30;10.50;;;18.10;60.90;;;;;;4967569;28;20470;-90
2022/03/02 10:17:48;;;;;;;9.80;7.30;;;17.90;59.10;;;;;;4972644;28;20444;-89
2022/03/02 10:20:29;;;;;;;12.10;8.93;;;17.70;59.00;;;;;;4969098;28;20555;-89
2022/03/02 10:23:32;;;;;;;10.30;7.30;;;17.30;59.80;;;;;;4969452;28;20443;-95
2022/03/02 10:26:18;;;;;;;15.10;11.00;;;16.90;59.30;;;;;;4971777;28;20496;-96
2022/03/02 10:29:09;;;;;;;15.47;9.53;;;16.40;60.00;;;;;;4970219;28;20512;-91
2022/03/02 10:31:41;;;;;;;9.43;8.00;;;16.00;61.00;;;;;;4985645;28;20512;-90
2022/03/02 10:34:17;;;;;;;13.00;9.47;;;15.60;61.00;;;;;;4977782;28;20454;-90
2022/03/02 10:36:46;;;;;;;10.47;9.00;;;15.30;61.30;;;;;;4964458;28;20442;-89
2022/03/02 10:39:31;;;;;;;10.90;7.87;;;15.00;62.40;;;;;;4955936;28;20979;-90
2022/03/02 10:42:02;;;;;;;9.30;7.30;;;14.80;62.80;;;;;;4966472;28;21518;-90
2022/03/02 10:44:42;;;;;;;11.63;8.13;;;14.70;64.50;;;;;;4969568;28;20522;-89
2022/03/02 10:47:16;;;;;;;9.80;7.77;;;14.60;65.00;;;;;;5070901;28;20484;-90
2022/03/02 10:49:44;;;;;;;10.90;7.97;;;14.40;64.50;;;;;;5079408;28;20460;-89
2022/03/02 10:52:14;;;;;;;19.03;10.50;;;14.30;64.90;;;;;;5074856;28;20851;-90
2022/03/02 10:54:42;;;;;;;12.53;9.30;;;14.20;64.40;;;;;;5071057;28;20954;-89
2022/03/02 10:57:12;;;;;;;13.97;8.00;;;14.10;64.60;;;;;;5068997;28;20432;-90
2022/03/02 10:59:43;;;;;;;14.90;9.00;;;14.00;65.10;;;;;;5076535;28;20849;-89
2022/03/02 11:02:10;;;;;;;16.43;10.40;;;14.00;64.40;;;;;;5074857;28;20450;-89
2022/03/02 11:04:41;;;;;;;9.93;7.40;;;13.90;63.90;;;;;;5076341;28;20524;-89
2022/03/02 11:07:07;;;;;;;11.40;7.80;;;13.70;66.30;;;;;;5076886;28;20487;-89
2022/03/02 11:09:34;;;;;;;12.93;8.10;;;13.60;66.20;;;;;;5048646;28;20465;-89
2022/03/02 11:12:01;;;;;;;10.50;7.32;;;13.50;66.10;;;;;;5069565;28;20425;-89
2022/03/02 11:14:27;;;;;;;9.67;8.57;;;13.20;64.90;;;;;;5084120;28;20203;-89
2022/03/02 11:17:16;;;;;;;12.38;8.73;;;13.10;65.70;;;;;;5074186;28;20473;-90
2022/03/02 11:19:48;;;;;;;9.73;7.53;;;12.90;67.30;;;;;;5071598;28;20208;-88
2022/03/02 11:22:17;;;;;;;11.52;7.90;;;12.80;67.10;;;;;;5090466;28;20408;-89
2022/03/02 11:24:44;;;;;;;8.95;6.05;;;12.70;66.70;;;;;;5079774;28;20218;-89
2022/03/02 11:27:35;;;;;;;10.90;7.75;;;12.50;67.30;;;;;;5068513;28;20332;-88
2022/03/02 11:30:12;;;;;;;9.77;7.00;;;12.50;68.10;;;;;;5062272;28;20207;-89
2022/03/02 11:32:42;;;;;;;12.63;8.13;;;12.40;68.20;;;;;;5090845;28;20488;-89
2022/03/02 11:35:10;;;;;;;10.15;8.10;;;12.40;67.50;;;;;;5077424;28;20767;-88
2022/03/02 11:37:37;;;;;;;10.70;8.07;;;12.50;68.60;;;;;;5080256;28;20187;-88
2022/03/02 11:40:07;;;;;;;12.38;9.15;;;12.60;69.50;;;;;;5040262;28;20479;-88
2022/03/02 11:42:37;;;;;;;10.45;7.80;;;12.70;70.20;;;;;;5073392;28;20559;-89
2022/03/02 11:45:06;;;;;;;9.38;7.43;;;12.70;68.50;;;;;;5006659;28;20230;-89
2022/03/02 11:47:41;;;;;;;11.02;7.32;;;12.80;68.10;;;;;;5071004;28;20313;-88
2022/03/02 11:50:09;;;;;;;10.05;7.30;;;12.80;67.80;;;;;;5076515;28;20207;-89
2022/03/02 11:52:42;;;;;;;10.53;7.00;;;12.80;68.20;;;;;;5070727;28;20179;-89
2022/03/02 11:55:17;;;;;;;12.13;7.88;;;12.80;68.70;;;;;;5089600;28;20816;-89
2022/03/02 11:57:50;;;;;;;10.70;7.20;;;12.80;69.30;;;;;;5071576;28;20174;-89
2022/03/02 12:00:16;;;;;;;8.90;7.10;;;12.80;68.50;;;;;;5077119;28;20452;-89
2022/03/02 12:02:56;;;;;;;10.00;6.70;;;12.80;69.20;;;;;;5080504;28;20428;-89
2022/03/02 12:05:28;;;;;;;10.55;7.70;;;12.80;68.50;;;;;;5074990;28;20456;-88
2022/03/02 12:08:02;;;;;;;8.90;6.90;;;12.80;68.20;;;;;;5051483;28;20216;-89
2022/03/02 12:10:31;;;;;;;10.70;6.97;;;12.70;68.60;;;;;;5001348;28;20489;-87
2022/03/02 12:12:58;;;;;;;10.15;7.63;;;12.70;68.70;;;;;;5056826;28;20418;-89
2022/03/02 12:15:27;;;;;;;10.77;7.45;;;12.60;69.20;;;;;;5064513;28;20200;-88
2022/03/02 12:18:09;;;;;;;10.17;7.50;;;12.60;69.80;;;;;;5079951;28;20176;-89
2022/03/02 12:20:46;;;;;;;12.88;8.18;;;12.50;69.20;;;;;;5070908;28;20479;-89
2022/03/02 12:23:12;;;;;;;10.05;6.95;;;12.50;68.80;;;;;;5072236;28;20202;-89
2022/03/02 12:25:47;;;;;;;11.68;7.60;;;12.50;70.20;;;;;;5065467;28;20214;-88
2022/03/02 12:28:15;;;;;;;9.73;7.32;;;12.50;70.20;;;;;;5015074;28;20207;-88
2022/03/02 12:30:41;;;;;;;8.52;7.63;;;12.40;69.60;;;;;;5009870;28;20195;-88
2022/03/02 12:33:09;;;;;;;10.25;7.65;;;12.40;69.20;;;;;;5065666;28;20180;-89
2022/03/02 12:35:35;;;;;;;9.85;7.65;;;12.40;69.50;;;;;;5069613;28;20195;-89
2022/03/02 12:38:13;;;;;;;13.02;8.48;;;12.40;69.20;;;;;;5064611;28;20184;-89
2022/03/02 12:40:41;;;;;;;10.40;7.30;;;12.40;69.30;;;;;;5063802;28;20211;-89
2022/03/02 12:43:16;;;;;;;10.40;6.93;;;12.30;69.30;;;;;;5067537;28;20464;-89
2022/03/02 12:45:48;;;;;;;10.40;8.60;;;12.30;70.30;;;;;;5086322;28;20533;-89
2022/03/02 12:48:16;;;;;;;11.25;8.00;;;12.30;69.90;;;;;;5093567;28;20319;-89
2022/03/02 12:50:44;;;;;;;10.45;7.38;;;12.30;69.70;;;;;;5080386;28;20273;-89